Airfield :
LOGIN :

Register | Disclaimer

   EN    FR    IT 

 










Legend :    VFR   Marginal VFR   IFR   Intensive IFR   Very Intensive IFR
Visi :
Ceiling :
>= 8 km
>= 3000ft
5 to 8 km
1000 to 3000 ft
1500m to 5 km
500 to 1000 ft
800 to 1500m
200 to 500 ft
< 800m
< 200 ft
Symbols :   Thunderstorms  Fog  Heavy snow  Heavy precipitations  Wind > 20 kt
SIGMETs :     Misc.  Thunderstorms  Icing  Turbulence  Mountain Waves  Volcanic Ashes






- Airport Elevation : 327 ft
- IATA code : BHX


EGBB - Birmingham

CURRENT METAR :
  • 042020Z 22010KT 170V260 9999 BKN020 18/14 Q1007

EXPIRED METARs :
  • 041950Z 23009KT 200V270 9999 BKN021 18/14 Q1007
  • 041920Z 24008KT 200V290 9999 BKN025 19/14 Q1007
  • 041850Z 25009G19KT 210V310 9999 BKN023 19/14 Q1007
  • 041820Z 25010KT 210V280 9999 BKN022 19/14 Q1007
  • 041750Z 23006KT 180V270 9999 BKN023 19/14 Q1007

TAF TAF EGBB
Valid from the 04 at 18:00 until the 05 at 18:00 UTC


041658Z 0418/0518 23007KT 9999 BKN020
PROB30
TEMPO 0418/0421 6000 -RADZ BKN012
BECMG 0422/0501 22018G30KT BKN012
TEMPO 0501/0504 6000 RA
BECMG 0504/0506 FEW030
ATIS : +44 121 780 0910



MET'MAP, your aeronautical weather chart ! - Copyright ORBIFLY December 2007 - Disclaimer

ORBIFLY MET'MAP TEAM :

Programming & Development : Alexandra Zaïnal
Concept & original design : Baudouin d'Aumeries
Assistance for programming : Marc-Olivier Méhu
Technical & hardware support : Manuel Goepfert

Contact : metmap@orbifly.com




SOURCES & CREDITS :

   NOAA